createdAt,value
2022-11-02T00:01:22.533Z,12.00
2022-11-02T00:03:50.422Z,12.00
2022-11-02T00:06:18.507Z,12.60
2022-11-02T00:08:46.408Z,12.50
2022-11-02T00:11:15.627Z,12.10
2022-11-02T00:13:43.503Z,12.00
2022-11-02T00:16:14.699Z,11.90
2022-11-02T00:18:45.119Z,11.70
2022-11-02T00:21:13.775Z,11.50
2022-11-02T00:23:42.307Z,11.70
2022-11-02T00:26:10.715Z,11.70
2022-11-02T00:28:40.034Z,11.50
2022-11-02T00:31:07.904Z,11.50
2022-11-02T00:33:35.748Z,11.40
2022-11-02T00:36:03.805Z,11.60
2022-11-02T00:38:32.347Z,11.30
2022-11-02T00:41:00.353Z,11.30
2022-11-02T00:43:28.258Z,11.20
2022-11-02T00:45:57.484Z,11.20
2022-11-02T00:48:26.004Z,11.40
2022-11-02T00:50:53.912Z,11.70
2022-11-02T00:53:21.845Z,11.00
2022-11-02T00:55:49.781Z,11.10
2022-11-02T00:58:17.634Z,10.90
2022-11-02T01:00:45.527Z,10.80
2022-11-02T01:03:14.746Z,10.80
2022-11-02T01:05:42.646Z,10.80
2022-11-02T01:08:10.641Z,10.90
2022-11-02T01:10:40.494Z,10.80
2022-11-02T01:13:10.579Z,11.50
2022-11-02T01:15:38.490Z,11.10
2022-11-02T01:18:07.041Z,11.20
2022-11-02T01:20:36.545Z,10.80
2022-11-02T01:23:04.628Z,10.60
2022-11-02T01:25:32.505Z,10.60
2022-11-02T01:28:00.343Z,10.80
2022-11-02T01:30:28.233Z,10.60
2022-11-02T01:32:57.150Z,10.50
2022-11-02T01:35:25.031Z,11.20
2022-11-02T01:37:54.261Z,10.60
2022-11-02T01:40:22.157Z,10.60
2022-11-02T01:42:50.281Z,10.60
2022-11-02T01:45:18.163Z,10.80
2022-11-02T01:47:49.086Z,10.60
2022-11-02T01:50:21.709Z,10.70
2022-11-02T01:52:49.580Z,10.80
2022-11-02T01:55:21.369Z,11.10
2022-11-02T01:57:52.536Z,10.70
2022-11-02T02:00:20.800Z,10.80
2022-11-02T02:02:52.565Z,10.90
2022-11-02T02:05:23.620Z,10.90
2022-11-02T02:07:52.445Z,11.30
2022-11-02T02:10:22.097Z,11.00
2022-11-02T02:12:50.258Z,11.10
2022-11-02T02:15:18.381Z,11.00
2022-11-02T02:17:51.331Z,11.20
2022-11-02T02:20:29.677Z,11.60
2022-11-02T02:23:31.453Z,11.20
2022-11-02T02:26:44.918Z,11.00
2022-11-02T02:29:20.557Z,11.20
2022-11-02T02:31:55.442Z,11.10
2022-11-02T02:34:29.902Z,11.10
2022-11-02T02:37:02.855Z,11.20
2022-11-02T02:39:37.402Z,11.50
2022-11-02T02:42:14.960Z,11.30
2022-11-02T02:44:58.307Z,11.40
2022-11-02T02:47:29.985Z,11.40
2022-11-02T02:50:03.903Z,11.80
2022-11-02T02:52:33.655Z,11.50
2022-11-02T02:55:04.167Z,11.60
2022-11-02T02:57:35.720Z,11.20
2022-11-02T03:00:05.643Z,11.20
2022-11-02T03:02:35.150Z,11.20
2022-11-02T03:05:03.422Z,11.20
2022-11-02T03:07:34.212Z,11.10
2022-11-02T03:10:10.735Z,11.40
2022-11-02T03:12:45.771Z,11.10
2022-11-02T03:15:21.157Z,11.10
2022-11-02T03:18:00.668Z,11.70
2022-11-02T03:20:39.048Z,11.20
2022-11-02T03:23:14.933Z,11.20
2022-11-02T03:25:52.451Z,11.30
2022-11-02T03:28:31.867Z,11.20
2022-11-02T03:31:10.358Z,11.30
2022-11-02T03:33:44.950Z,11.30
2022-11-02T03:36:16.351Z,11.30
2022-11-02T03:38:48.592Z,11.40
2022-11-02T03:41:17.509Z,11.50
2022-11-02T03:43:48.630Z,11.20
2022-11-02T03:46:19.507Z,11.20
2022-11-02T03:48:51.102Z,11.20
2022-11-02T03:51:21.835Z,11.20
2022-11-02T03:53:54.369Z,11.20
2022-11-02T03:56:25.870Z,11.20
2022-11-02T03:58:53.835Z,11.20
2022-11-02T04:01:23.540Z,11.40
2022-11-02T04:03:51.763Z,11.30
2022-11-02T04:06:20.147Z,11.40
2022-11-02T04:08:49.996Z,11.30
2022-11-02T04:11:35.758Z,11.50
2022-11-02T04:14:21.325Z,11.30
2022-11-02T04:17:10.579Z,11.40
2022-11-02T04:19:37.491Z,11.30
2022-11-02T04:22:23.069Z,11.10
2022-11-02T04:25:08.403Z,11.20
2022-11-02T04:27:36.280Z,11.30
2022-11-02T04:30:04.708Z,11.20
2022-11-02T04:32:56.530Z,11.30
2022-11-02T04:35:24.491Z,11.20
2022-11-02T04:38:09.862Z,11.20
2022-11-02T04:40:37.746Z,11.30
2022-11-02T04:43:05.828Z,11.00
2022-11-02T04:45:33.750Z,10.60
2022-11-02T04:48:03.943Z,11.10
2022-11-02T04:50:32.523Z,11.20
2022-11-02T04:53:01.739Z,11.40
2022-11-02T04:55:30.192Z,11.10
2022-11-02T04:57:58.060Z,11.00
2022-11-02T05:00:26.104Z,11.30
2022-11-02T05:02:54.264Z,11.00
2022-11-02T05:05:23.579Z,11.10
2022-11-02T05:07:51.435Z,11.20
2022-11-02T05:10:19.346Z,11.40
2022-11-02T05:12:47.208Z,11.20
2022-11-02T05:15:15.125Z,11.50
2022-11-02T05:17:42.997Z,11.20
2022-11-02T05:20:11.687Z,11.40
2022-11-02T05:22:42.668Z,11.40
2022-11-02T05:25:11.026Z,11.40
2022-11-02T05:27:39.169Z,11.40
2022-11-02T05:30:08.123Z,11.30
2022-11-02T05:32:35.983Z,11.40
2022-11-02T05:35:04.002Z,11.20
2022-11-02T05:37:31.872Z,11.30
2022-11-02T05:40:01.059Z,11.30
2022-11-02T05:42:28.918Z,11.40
2022-11-02T05:44:56.826Z,11.20
2022-11-02T05:47:24.695Z,11.60
2022-11-02T05:49:52.599Z,11.20
2022-11-02T05:52:20.499Z,11.20
2022-11-02T05:54:48.411Z,11.20
2022-11-02T05:57:19.091Z,11.10
2022-11-02T05:59:49.337Z,11.20
2022-11-02T06:02:17.468Z,11.20
2022-11-02T06:04:45.319Z,11.30
2022-11-02T06:07:13.212Z,11.30
2022-11-02T06:09:41.083Z,11.40
2022-11-02T06:12:09.171Z,11.40
2022-11-02T06:14:38.411Z,11.40
2022-11-02T06:17:06.311Z,11.40
2022-11-02T06:19:34.216Z,11.70
2022-11-02T06:22:02.470Z,11.40
2022-11-02T06:24:30.427Z,11.40
2022-11-02T06:26:58.340Z,11.80
2022-11-02T06:29:26.198Z,11.30
2022-11-02T06:31:55.428Z,11.30
2022-11-02T06:34:23.283Z,11.50
2022-11-02T06:36:51.144Z,11.30
2022-11-02T06:39:19.018Z,11.40
2022-11-02T06:41:46.883Z,11.50
2022-11-02T06:44:14.747Z,11.70
2022-11-02T06:46:42.585Z,11.60
2022-11-02T06:49:11.768Z,11.50
2022-11-02T06:51:39.730Z,11.60
2022-11-02T06:54:08.834Z,11.60
2022-11-02T06:56:36.910Z,11.60
2022-11-02T06:59:04.776Z,11.50
2022-11-02T07:01:32.812Z,11.50
2022-11-02T07:04:00.779Z,11.60
2022-11-02T07:06:30.157Z,11.60
2022-11-02T07:08:58.039Z,11.50
2022-11-02T07:11:25.905Z,11.50
2022-11-02T07:13:53.883Z,11.40
2022-11-02T07:16:21.794Z,11.40
2022-11-02T07:18:49.672Z,11.60
2022-11-02T07:21:17.605Z,11.30
2022-11-02T07:23:46.856Z,11.40
2022-11-02T07:26:14.717Z,11.30
2022-11-02T07:28:42.621Z,11.40
2022-11-02T07:31:10.667Z,11.40
2022-11-02T07:33:38.531Z,11.50
2022-11-02T07:36:07.308Z,11.60
2022-11-02T07:38:35.306Z,11.60
2022-11-02T07:41:04.690Z,11.70
2022-11-02T07:43:32.563Z,11.60
2022-11-02T07:46:02.570Z,11.50
2022-11-02T07:48:30.796Z,11.60
2022-11-02T07:50:59.630Z,11.60
2022-11-02T07:53:27.630Z,11.70
2022-11-02T07:55:55.581Z,11.60
2022-11-02T07:58:24.783Z,11.70
2022-11-02T08:00:55.937Z,11.60
2022-11-02T08:03:28.087Z,11.70
2022-11-02T08:05:56.527Z,11.80
2022-11-02T08:08:25.597Z,11.70
2022-11-02T08:10:53.915Z,11.30
2022-11-02T08:13:25.988Z,11.60
2022-11-02T08:15:55.037Z,11.70
2022-11-02T08:18:24.376Z,11.60
2022-11-02T08:20:55.733Z,11.60
2022-11-02T08:23:25.065Z,11.80
2022-11-02T08:25:54.360Z,11.70
2022-11-02T08:28:25.622Z,11.70
2022-11-02T08:30:54.072Z,11.70
2022-11-02T08:33:22.687Z,11.70
2022-11-02T08:35:50.743Z,11.70
2022-11-02T08:38:22.389Z,11.90
2022-11-02T08:40:50.410Z,11.70
2022-11-02T08:43:18.312Z,11.60
2022-11-02T08:46:13.778Z,11.90
2022-11-02T08:48:35.449Z,11.90
2022-11-02T08:51:05.528Z,11.70
2022-11-02T08:53:33.508Z,11.90
2022-11-02T08:56:01.438Z,11.80
2022-11-02T08:58:29.454Z,11.90
2022-11-02T09:00:58.705Z,12.00
2022-11-02T09:03:28.201Z,12.00
2022-11-02T09:05:59.743Z,12.50
2022-11-02T09:08:28.825Z,12.00
2022-11-02T09:11:00.597Z,12.10
2022-11-02T09:13:29.175Z,12.20
2022-11-02T09:16:00.246Z,12.10
2022-11-02T09:18:28.692Z,12.30
2022-11-02T09:20:58.039Z,12.30
2022-11-02T09:23:25.936Z,12.30
2022-11-02T09:25:53.857Z,12.40
2022-11-02T09:28:21.727Z,12.70
2022-11-02T09:30:49.624Z,12.60
2022-11-02T09:33:19.274Z,12.70
2022-11-02T09:35:49.215Z,12.90
2022-11-02T09:38:19.166Z,12.80
2022-11-02T09:40:54.498Z,12.90
2022-11-02T09:43:32.965Z,12.90
2022-11-02T09:46:04.857Z,13.20
2022-11-02T09:48:37.792Z,12.90
2022-11-02T09:51:09.444Z,12.90
2022-11-02T09:53:49.666Z,13.00
2022-11-02T09:56:20.520Z,13.00
2022-11-02T09:58:54.916Z,13.10
2022-11-02T10:01:33.915Z,13.10
2022-11-02T10:04:27.214Z,13.30
2022-11-02T10:07:03.907Z,13.10
2022-11-02T10:09:38.080Z,13.30
2022-11-02T10:12:12.927Z,13.30
2022-11-02T10:14:57.233Z,13.30
2022-11-02T10:17:28.303Z,13.30
2022-11-02T10:20:00.968Z,13.20
2022-11-02T10:22:33.980Z,13.10
2022-11-02T10:25:07.377Z,13.10
2022-11-02T10:27:39.182Z,13.30
2022-11-02T10:30:11.968Z,13.20
2022-11-02T10:35:37.123Z,13.50
2022-11-02T10:38:19.361Z,13.70
2022-11-02T10:41:10.038Z,13.50
2022-11-02T10:43:52.240Z,13.50
2022-11-02T10:46:35.561Z,13.60
2022-11-02T10:49:12.039Z,13.80
2022-11-02T10:51:41.789Z,13.70
2022-11-02T10:54:17.035Z,13.90
2022-11-02T10:56:50.476Z,13.50
2022-11-02T10:59:20.078Z,13.80
2022-11-02T11:02:04.287Z,13.70
2022-11-02T11:04:33.824Z,13.80
2022-11-02T11:07:08.064Z,13.60
2022-11-02T11:09:42.911Z,13.50
2022-11-02T11:12:20.757Z,14.20
2022-11-02T11:20:35.256Z,13.60
2022-11-02T11:23:20.389Z,13.70
2022-11-02T11:26:02.447Z,13.70
2022-11-02T11:28:33.016Z,13.70
2022-11-02T11:31:07.977Z,13.80
2022-11-02T11:33:45.166Z,14.10
2022-11-02T11:36:23.176Z,13.80
2022-11-02T11:38:54.586Z,13.80
2022-11-02T11:41:22.951Z,13.90
2022-11-02T11:43:51.939Z,13.80
2022-11-02T11:46:20.249Z,13.80
2022-11-02T11:48:51.990Z,13.90
2022-11-02T11:51:31.241Z,14.70
2022-11-02T11:54:18.639Z,13.90
2022-11-02T11:56:47.201Z,13.90
2022-11-02T11:59:29.572Z,14.10
2022-11-02T12:02:00.070Z,14.60
2022-11-02T12:04:30.171Z,14.20
2022-11-02T12:07:09.424Z,14.10
2022-11-02T12:09:43.655Z,14.10
2022-11-02T12:12:17.441Z,14.10
2022-11-02T12:14:55.981Z,14.40
2022-11-02T12:17:34.105Z,14.20
2022-11-02T12:20:15.555Z,14.30
2022-11-02T12:22:55.109Z,14.30
2022-11-02T12:25:38.158Z,14.30
2022-11-02T12:28:19.355Z,14.30
2022-11-02T12:30:55.398Z,14.20
2022-11-02T12:33:34.711Z,14.20
2022-11-02T12:36:20.710Z,14.00
2022-11-02T12:39:03.475Z,14.50
2022-11-02T12:41:54.991Z,14.30
2022-11-02T12:44:43.017Z,14.30
2022-11-02T12:47:23.125Z,14.50
2022-11-02T12:50:00.801Z,14.50
2022-11-02T12:52:40.274Z,14.60
2022-11-02T12:55:17.416Z,14.70
2022-11-02T12:57:48.164Z,15.20
2022-11-02T13:00:21.634Z,15.10
2022-11-02T13:02:58.903Z,14.90
2022-11-02T13:05:30.945Z,14.80
2022-11-02T13:08:08.260Z,14.90
2022-11-02T13:10:41.620Z,14.90
2022-11-02T13:13:15.521Z,15.10
2022-11-02T13:15:46.074Z,15.10
2022-11-02T13:18:18.754Z,14.90
2022-11-02T13:20:49.530Z,15.10
2022-11-02T13:23:27.315Z,15.10
2022-11-02T13:26:00.191Z,15.40
2022-11-02T13:28:40.824Z,15.20
2022-11-02T13:31:15.273Z,15.60
2022-11-02T13:33:47.788Z,15.70
2022-11-02T13:36:16.465Z,15.40
2022-11-02T13:38:49.743Z,14.90
2022-11-02T13:41:42.611Z,15.10
2022-11-02T13:44:43.946Z,15.30
2022-11-02T13:47:35.678Z,14.70
2022-11-02T13:50:05.385Z,14.70
2022-11-02T13:52:40.558Z,15.00
2022-11-02T13:55:16.825Z,14.90
2022-11-02T13:57:47.916Z,14.80
2022-11-02T14:00:32.561Z,14.80
2022-11-02T14:03:08.368Z,14.70
2022-11-02T14:05:44.429Z,15.00
2022-11-02T14:08:20.966Z,14.90
2022-11-02T14:11:05.040Z,15.30
2022-11-02T14:14:10.527Z,14.50
2022-11-02T14:16:45.374Z,14.70
2022-11-02T14:19:24.263Z,14.60
2022-11-02T14:22:12.962Z,14.50
2022-11-02T14:25:17.463Z,14.60
2022-11-02T14:27:45.676Z,14.60
2022-11-02T14:30:44.038Z,14.70
2022-11-02T14:33:38.166Z,14.40
2022-11-02T14:36:11.377Z,14.30
2022-11-02T14:39:00.879Z,14.30
2022-11-02T14:41:48.236Z,14.40
2022-11-02T14:44:46.336Z,14.10
2022-11-02T14:47:16.473Z,14.40
2022-11-02T14:49:51.907Z,14.70
2022-11-02T14:52:27.232Z,14.20
2022-11-02T14:55:02.440Z,14.10
2022-11-02T14:57:32.856Z,14.20
2022-11-02T15:00:03.571Z,14.00
2022-11-02T15:02:40.264Z,13.90
2022-11-02T15:05:25.346Z,14.20
2022-11-02T15:07:58.316Z,13.80
2022-11-02T15:10:46.539Z,14.00
2022-11-02T15:13:43.113Z,13.80
2022-11-02T15:16:41.859Z,13.80
2022-11-02T15:19:41.388Z,13.90
2022-11-02T15:22:35.567Z,13.80
2022-11-02T15:25:10.621Z,13.90
2022-11-02T15:27:40.916Z,13.70
2022-11-02T15:30:14.740Z,13.60
2022-11-02T15:32:46.880Z,13.60
2022-11-02T15:35:19.105Z,13.70
2022-11-02T15:38:11.208Z,13.40
2022-11-02T15:40:48.822Z,13.40
2022-11-02T15:43:37.109Z,13.40
2022-11-02T15:46:09.777Z,13.30
2022-11-02T15:48:46.615Z,13.40
2022-11-02T15:51:22.613Z,13.30
2022-11-02T15:54:03.946Z,13.30
2022-11-02T15:56:48.494Z,13.40
2022-11-02T15:59:43.332Z,13.30
2022-11-02T16:02:23.472Z,13.20
2022-11-02T16:04:54.141Z,13.10
2022-11-02T16:07:29.155Z,13.10
2022-11-02T16:10:26.079Z,13.00
2022-11-02T16:13:14.339Z,12.90
2022-11-02T16:15:43.638Z,13.00
2022-11-02T16:18:25.424Z,12.90
2022-11-02T16:20:54.941Z,13.00
2022-11-02T16:23:26.114Z,13.00
2022-11-02T16:25:58.131Z,13.10
2022-11-02T16:28:27.456Z,13.10
2022-11-02T16:31:08.091Z,12.90
2022-11-02T16:33:42.570Z,13.30
2022-11-02T16:36:12.328Z,12.80
2022-11-02T16:38:46.681Z,12.70
2022-11-02T16:41:17.343Z,12.80
2022-11-02T16:43:46.970Z,12.80
2022-11-02T16:46:17.886Z,12.80
2022-11-02T16:49:15.077Z,12.90
2022-11-02T16:51:50.907Z,12.70
2022-11-02T16:54:31.443Z,12.70
2022-11-02T16:57:11.199Z,12.80
2022-11-02T16:59:47.314Z,12.90
2022-11-02T17:02:16.328Z,12.70
2022-11-02T17:04:46.318Z,12.80
2022-11-02T17:07:18.871Z,12.90
2022-11-02T17:09:52.718Z,12.80
2022-11-02T17:12:28.378Z,12.80
2022-11-02T17:14:56.464Z,12.70
2022-11-02T17:17:37.349Z,12.60
2022-11-02T17:20:17.745Z,12.60
2022-11-02T17:22:57.822Z,12.60
2022-11-02T17:25:27.762Z,12.60
2022-11-02T17:27:58.480Z,12.70
2022-11-02T17:30:46.481Z,12.50
2022-11-02T17:33:33.453Z,12.50
2022-11-02T17:36:07.105Z,12.60
2022-11-02T17:38:35.502Z,12.60
2022-11-02T17:41:23.803Z,12.60
2022-11-02T17:43:52.078Z,12.60
2022-11-02T17:46:20.200Z,12.60
2022-11-02T17:48:48.066Z,12.50
2022-11-02T17:51:16.237Z,12.50
2022-11-02T17:53:44.146Z,12.60
2022-11-02T17:56:12.388Z,12.30
2022-11-02T17:58:40.589Z,12.70
2022-11-02T18:01:11.714Z,12.50
2022-11-02T18:03:39.700Z,12.60
2022-11-02T18:06:08.196Z,12.40
2022-11-02T18:08:56.176Z,12.70
2022-11-02T18:11:26.460Z,12.40
2022-11-02T18:13:54.807Z,12.60
2022-11-02T18:16:24.114Z,12.50
2022-11-02T18:18:51.988Z,12.70
2022-11-02T18:21:19.911Z,12.90
2022-11-02T18:23:47.792Z,12.50
2022-11-02T18:26:15.741Z,12.60
2022-11-02T18:28:44.059Z,12.50
2022-11-02T18:31:11.967Z,12.60
2022-11-02T18:33:43.596Z,12.40
2022-11-02T18:36:12.153Z,12.40
2022-11-02T18:38:40.129Z,12.50
2022-11-02T18:41:23.205Z,12.60
2022-11-02T18:43:51.082Z,12.60
2022-11-02T18:46:19.195Z,12.40
2022-11-02T18:48:48.786Z,13.00
2022-11-02T18:51:16.753Z,12.60
2022-11-02T18:53:44.756Z,12.50
2022-11-02T18:56:12.935Z,12.80
2022-11-02T18:58:40.809Z,12.50
2022-11-02T19:01:10.386Z,12.90
2022-11-02T19:03:38.463Z,12.50
2022-11-02T19:06:26.090Z,14.00
2022-11-02T19:09:11.571Z,12.50
2022-11-02T19:11:39.527Z,12.70
2022-11-02T19:14:08.506Z,12.20
2022-11-02T19:16:36.430Z,12.30
2022-11-02T19:19:04.732Z,12.20
2022-11-02T19:21:34.082Z,12.40
2022-11-02T19:24:02.092Z,13.00
2022-11-02T19:26:30.089Z,12.60
2022-11-02T19:29:02.899Z,12.40
2022-11-02T19:31:34.878Z,12.40
2022-11-02T19:34:03.221Z,12.60
2022-11-02T19:36:31.492Z,12.60
2022-11-02T19:39:03.344Z,12.50
2022-11-02T19:41:32.463Z,12.50
2022-11-02T19:44:00.722Z,12.50
2022-11-02T19:46:28.971Z,12.40
2022-11-02T19:48:58.297Z,12.40
2022-11-02T19:51:28.313Z,12.50
2022-11-02T19:53:58.214Z,12.40
2022-11-02T19:56:28.603Z,12.50
2022-11-02T19:58:57.396Z,12.40
2022-11-02T20:01:26.483Z,12.50
2022-11-02T20:03:55.615Z,12.50
2022-11-02T20:06:25.425Z,12.40
2022-11-02T20:08:54.433Z,12.40
2022-11-02T20:11:23.116Z,12.70
2022-11-02T20:13:53.688Z,12.50
2022-11-02T20:16:22.028Z,12.60
2022-11-02T20:18:51.276Z,12.50
2022-11-02T20:21:21.131Z,12.80
2022-11-02T20:23:50.348Z,12.50
2022-11-02T20:26:20.454Z,12.40
2022-11-02T20:28:48.876Z,12.40
2022-11-02T20:31:20.153Z,12.40
2022-11-02T20:33:48.822Z,12.40
2022-11-02T20:36:17.276Z,12.40
2022-11-02T20:38:45.417Z,12.40
2022-11-02T20:41:15.076Z,12.40
2022-11-02T20:43:44.380Z,12.30
2022-11-02T20:49:19.832Z,12.40
2022-11-02T20:51:50.676Z,12.50
2022-11-02T20:54:19.655Z,12.40
2022-11-02T20:56:48.243Z,12.60
2022-11-02T20:59:16.822Z,12.70
2022-11-02T21:01:45.154Z,12.40
2022-11-02T21:04:20.331Z,12.50
2022-11-02T21:06:49.365Z,12.70
2022-11-02T21:09:17.579Z,12.60
2022-11-02T21:12:03.262Z,12.50
2022-11-02T21:14:31.141Z,12.50
2022-11-02T21:16:59.137Z,12.50
2022-11-02T21:19:28.380Z,12.50
2022-11-02T21:21:59.745Z,12.60
2022-11-02T21:24:28.449Z,12.40
2022-11-02T21:26:56.338Z,12.40
2022-11-02T21:29:24.248Z,12.20
2022-11-02T21:31:52.170Z,12.40
2022-11-02T21:34:20.062Z,12.40
2022-11-02T21:36:49.748Z,12.90
2022-11-02T21:39:17.739Z,12.40
2022-11-02T21:41:45.583Z,12.60
2022-11-02T21:44:13.456Z,12.70
2022-11-02T21:46:41.921Z,12.50
2022-11-02T21:49:09.969Z,12.30
2022-11-02T21:51:38.504Z,12.40
2022-11-02T21:54:07.884Z,12.40
2022-11-02T21:56:37.022Z,12.60
2022-11-02T21:59:06.307Z,12.60
2022-11-02T22:01:47.963Z,12.30
2022-11-02T22:04:19.387Z,12.40
2022-11-02T22:06:47.263Z,12.40
2022-11-02T22:09:16.509Z,12.50
2022-11-02T22:11:44.968Z,12.40
2022-11-02T22:14:12.825Z,12.30
2022-11-02T22:16:42.445Z,12.40
2022-11-02T22:19:12.039Z,12.50
2022-11-02T22:21:41.401Z,12.60
2022-11-02T22:24:10.159Z,12.80
2022-11-02T22:26:40.853Z,12.40
2022-11-02T22:29:09.371Z,12.40
2022-11-02T22:31:39.554Z,12.50
2022-11-02T22:34:09.079Z,12.50
2022-11-02T22:36:38.301Z,12.60
2022-11-02T22:39:06.824Z,12.50
2022-11-02T22:41:37.138Z,12.30
2022-11-02T22:44:08.232Z,12.40
2022-11-02T22:46:40.988Z,12.40
2022-11-02T22:49:10.700Z,12.30
2022-11-02T22:51:40.222Z,12.30
2022-11-02T22:54:09.951Z,12.30
2022-11-02T22:56:37.846Z,12.30
2022-11-02T22:59:07.380Z,12.20
2022-11-02T23:01:37.065Z,12.30
2022-11-02T23:04:06.125Z,12.40
2022-11-02T23:06:34.935Z,12.30
2022-11-02T23:09:03.507Z,12.20
2022-11-02T23:11:32.800Z,12.60
2022-11-02T23:14:03.960Z,12.40
2022-11-02T23:16:35.147Z,12.50
2022-11-02T23:19:22.030Z,12.30
2022-11-02T23:22:09.527Z,12.60
2022-11-02T23:24:51.485Z,13.00
2022-11-02T23:27:19.356Z,12.20
2022-11-02T23:30:04.600Z,12.50
2022-11-02T23:32:33.895Z,12.20
2022-11-02T23:35:19.292Z,12.50
2022-11-02T23:37:47.855Z,12.30
2022-11-02T23:40:18.947Z,12.20
2022-11-02T23:42:46.900Z,12.20
2022-11-02T23:45:14.785Z,12.10
2022-11-02T23:48:00.713Z,12.20
2022-11-02T23:50:48.863Z,12.40
2022-11-02T23:53:36.471Z,12.10
2022-11-02T23:56:22.530Z,13.60
2022-11-02T23:59:06.397Z,12.10
